Aérodrome :
LOGIN :

S'inscrire | Disclaimer

   EN    FR    IT 

 










Légende :    VFR   VFR Marginal   IFR   IFR Intensif   IFR Très Intensif
Visi : 
Plafond : 
>= 8 km
>= 3000ft
5 à 8 km
1000 à 3000 ft
1500m à 5 km
500 à 1000 ft
800 à 1500m
200 à 500 ft
< 800m
< 200 ft
Symboles :   Orages  Brouillard  Fortes neiges  Fortes précipitations  Vent > 20 kt
SIGMETs :   Divers  Orages  Givrage  Turbulence  Onde Orograph.  Cendres Volcan.







- Altitude de l'aérodrome : 325 ft
- Code IATA : BES
- Voir les cartes d'approche


LFRB - Brest

DERNIER METAR :
  • 221830Z AUTO 24019KT 3700 -RA BR OVC003 18/18 Q1015 TEMPO OVC005 BECMG 23015G27KT

METARs EXPIRÉS :
  • 221800Z AUTO 24018G29KT 3800 BR OVC004 18/18 Q1015 TEMPO OVC005
  • 221730Z AUTO 24017G28KT 220V280 3300 -RA BR OVC003 18/18 Q1015 TEMPO OVC005
  • 221700Z AUTO 24019KT 3100 BR OVC003 18/18 Q1014 TEMPO 2000 DZ BECMG 23014G24KT
  • 221630Z AUTO 24019KT 2600 -RADZ BR OVC003 18/18 Q1014 TEMPO DZ BECMG 23014G24KT

TAF TAF LFRB
Valide du 22 à 18h jusqu'au 24 à 00h UTC


221700Z 2218/2324 23015G27KT 2000 BR OVC002
TEMPO 2218/2306 4000 BR OVC005
BECMG 2309/2312 01017G27KT 9999 NSW BKN018
BECMG 2318/2320 01006KT
ATIS : +33 2 98 32 02 71
Pas de NOTAMs connus pour ce terrain.
1 SIGMET publié pour la FIR Brest (LFRR) :
 
Turbulence forte
LFRR SIGMET 3 VALID 221600/222000 LFPW
LFRR BREST FIR/UIR SEV TURB FCST WI N4915 W00015 - N4815 W00015 - N4815 W00300 - N4915 W00230 - N4915 W00015 SFC/FL060 MOV E 15KT WKN=



MET'MAP, la Météo Aéronautique d'un coup d'oeil ! - Copyright ORBIFLY Décembre 2007 - Disclaimer

ORBIFLY MET'MAP TEAM :

Programmation & Développement : Alexandra Zaïnal
Conception & Développement : Baudouin d'Aumeries
Co-Programmation & Développement : Marc-Olivier Méhu
Soutien technique & logistique : Manuel Goepfert

Contact : metmap@orbifly.com




SOURCES & CREDITS :

   NOAA